sensor_id;sensor_type;location;lat;lon;timestamp;P1;durP1;ratioP1;P2;durP2;ratioP2
59872;SDS011;50750;51.636;4.948;2023-05-08T00:00:48;2.40;;;1.80;;
59872;SDS011;50750;51.636;4.948;2023-05-08T00:03:16;2.90;;;1.80;;
59872;SDS011;50750;51.636;4.948;2023-05-08T00:05:43;2.50;;;1.80;;
59872;SDS011;50750;51.636;4.948;2023-05-08T00:08:09;2.70;;;1.90;;
59872;SDS011;50750;51.636;4.948;2023-05-08T00:10:36;2.60;;;1.90;;
59872;SDS011;50750;51.636;4.948;2023-05-08T00:13:02;2.80;;;1.90;;
59872;SDS011;50750;51.636;4.948;2023-05-08T00:15:29;3.00;;;1.90;;
59872;SDS011;50750;51.636;4.948;2023-05-08T00:17:55;2.60;;;2.00;;
59872;SDS011;50750;51.636;4.948;2023-05-08T00:20:22;2.40;;;1.80;;
59872;SDS011;50750;51.636;4.948;2023-05-08T00:22:48;3.10;;;2.00;;
59872;SDS011;50750;51.636;4.948;2023-05-08T00:25:15;2.50;;;1.80;;
59872;SDS011;50750;51.636;4.948;2023-05-08T00:27:41;2.70;;;2.00;;
59872;SDS011;50750;51.636;4.948;2023-05-08T00:30:08;2.60;;;1.80;;
59872;SDS011;50750;51.636;4.948;2023-05-08T00:32:35;2.70;;;1.60;;
59872;SDS011;50750;51.636;4.948;2023-05-08T00:35:01;2.60;;;1.90;;
59872;SDS011;50750;51.636;4.948;2023-05-08T00:37:28;2.30;;;1.70;;
59872;SDS011;50750;51.636;4.948;2023-05-08T00:39:55;2.70;;;1.80;;
59872;SDS011;50750;51.636;4.948;2023-05-08T00:42:21;2.60;;;1.90;;
59872;SDS011;50750;51.636;4.948;2023-05-08T00:44:48;2.60;;;1.70;;
59872;SDS011;50750;51.636;4.948;2023-05-08T00:47:14;2.80;;;2.00;;
59872;SDS011;50750;51.636;4.948;2023-05-08T00:49:41;2.40;;;1.70;;
59872;SDS011;50750;51.636;4.948;2023-05-08T00:52:08;2.50;;;1.60;;
59872;SDS011;50750;51.636;4.948;2023-05-08T00:54:35;2.50;;;2.00;;
59872;SDS011;50750;51.636;4.948;2023-05-08T00:57:05;2.80;;;1.70;;
59872;SDS011;50750;51.636;4.948;2023-05-08T01:02:01;2.40;;;2.00;;
59872;SDS011;50750;51.636;4.948;2023-05-08T01:04:28;2.40;;;1.90;;
59872;SDS011;50750;51.636;4.948;2023-05-08T01:06:56;2.40;;;1.90;;
59872;SDS011;50750;51.636;4.948;2023-05-08T01:09:23;2.50;;;1.90;;
59872;SDS011;50750;51.636;4.948;2023-05-08T01:17:25;3.10;;;1.80;;
59872;SDS011;50750;51.636;4.948;2023-05-08T01:25:32;3.00;;;2.00;;
59872;SDS011;50750;51.636;4.948;2023-05-08T01:30:58;2.40;;;1.70;;
59872;SDS011;50750;51.636;4.948;2023-05-08T01:41:39;2.40;;;2.00;;
59872;SDS011;50750;51.636;4.948;2023-05-08T01:44:17;2.30;;;1.80;;
59872;SDS011;50750;51.636;4.948;2023-05-08T01:46:47;2.40;;;1.70;;
59872;SDS011;50750;51.636;4.948;2023-05-08T01:49:25;2.40;;;1.80;;
59872;SDS011;50750;51.636;4.948;2023-05-08T01:51:59;2.30;;;1.70;;
59872;SDS011;50750;51.636;4.948;2023-05-08T01:54:32;2.20;;;1.70;;
59872;SDS011;50750;51.636;4.948;2023-05-08T01:57:06;2.60;;;1.80;;
59872;SDS011;50750;51.636;4.948;2023-05-08T02:02:03;3.40;;;1.80;;
59872;SDS011;50750;51.636;4.948;2023-05-08T02:04:30;2.70;;;1.80;;
59872;SDS011;50750;51.636;4.948;2023-05-08T02:07:00;3.70;;;1.60;;
59872;SDS011;50750;51.636;4.948;2023-05-08T02:09:28;2.40;;;1.80;;
59872;SDS011;50750;51.636;4.948;2023-05-08T02:11:56;2.60;;;1.90;;
59872;SDS011;50750;51.636;4.948;2023-05-08T02:14:25;2.80;;;1.90;;
59872;SDS011;50750;51.636;4.948;2023-05-08T02:16:54;2.20;;;1.70;;
59872;SDS011;50750;51.636;4.948;2023-05-08T02:19:22;2.40;;;1.90;;
59872;SDS011;50750;51.636;4.948;2023-05-08T02:21:52;2.20;;;1.80;;
59872;SDS011;50750;51.636;4.948;2023-05-08T02:24:21;2.30;;;1.80;;
59872;SDS011;50750;51.636;4.948;2023-05-08T02:26:49;2.40;;;1.90;;
59872;SDS011;50750;51.636;4.948;2023-05-08T02:29:17;2.40;;;1.90;;
59872;SDS011;50750;51.636;4.948;2023-05-08T02:31:46;2.10;;;1.70;;
59872;SDS011;50750;51.636;4.948;2023-05-08T02:34:14;2.40;;;1.90;;
59872;SDS011;50750;51.636;4.948;2023-05-08T02:36:42;2.40;;;1.80;;
59872;SDS011;50750;51.636;4.948;2023-05-08T02:39:10;2.40;;;1.80;;
59872;SDS011;50750;51.636;4.948;2023-05-08T02:41:39;2.30;;;1.70;;
59872;SDS011;50750;51.636;4.948;2023-05-08T02:44:07;2.70;;;1.80;;
59872;SDS011;50750;51.636;4.948;2023-05-08T02:46:35;2.40;;;1.80;;
59872;SDS011;50750;51.636;4.948;2023-05-08T02:49:29;2.80;;;1.80;;
59872;SDS011;50750;51.636;4.948;2023-05-08T02:52:03;2.40;;;1.60;;
59872;SDS011;50750;51.636;4.948;2023-05-08T02:54:45;2.30;;;1.80;;
59872;SDS011;50750;51.636;4.948;2023-05-08T02:57:30;2.50;;;1.80;;
59872;SDS011;50750;51.636;4.948;2023-05-08T03:00:04;2.50;;;1.70;;
59872;SDS011;50750;51.636;4.948;2023-05-08T03:02:39;2.80;;;2.00;;
59872;SDS011;50750;51.636;4.948;2023-05-08T03:05:15;3.00;;;2.00;;
59872;SDS011;50750;51.636;4.948;2023-05-08T03:07:46;2.70;;;1.90;;
59872;SDS011;50750;51.636;4.948;2023-05-08T03:10:18;2.60;;;1.70;;
59872;SDS011;50750;51.636;4.948;2023-05-08T03:12:50;2.50;;;1.90;;
59872;SDS011;50750;51.636;4.948;2023-05-08T03:17:51;2.60;;;1.80;;
59872;SDS011;50750;51.636;4.948;2023-05-08T03:20:21;2.90;;;1.80;;
59872;SDS011;50750;51.636;4.948;2023-05-08T03:22:52;2.40;;;1.80;;
59872;SDS011;50750;51.636;4.948;2023-05-08T03:27:48;2.60;;;1.90;;
59872;SDS011;50750;51.636;4.948;2023-05-08T03:30:16;2.30;;;1.60;;
59872;SDS011;50750;51.636;4.948;2023-05-08T03:32:44;2.40;;;1.80;;
59872;SDS011;50750;51.636;4.948;2023-05-08T03:35:12;3.10;;;1.90;;
59872;SDS011;50750;51.636;4.948;2023-05-08T03:37:40;2.30;;;1.70;;
59872;SDS011;50750;51.636;4.948;2023-05-08T03:40:08;2.80;;;2.10;;
59872;SDS011;50750;51.636;4.948;2023-05-08T03:42:35;2.50;;;1.80;;
59872;SDS011;50750;51.636;4.948;2023-05-08T03:45:02;2.70;;;1.70;;
59872;SDS011;50750;51.636;4.948;2023-05-08T03:47:30;2.30;;;1.70;;
59872;SDS011;50750;51.636;4.948;2023-05-08T03:49:57;2.50;;;1.70;;
59872;SDS011;50750;51.636;4.948;2023-05-08T03:52:25;2.50;;;1.90;;
59872;SDS011;50750;51.636;4.948;2023-05-08T03:54:51;2.60;;;1.90;;
59872;SDS011;50750;51.636;4.948;2023-05-08T03:57:18;2.40;;;1.80;;
59872;SDS011;50750;51.636;4.948;2023-05-08T04:00:05;2.70;;;2.00;;
59872;SDS011;50750;51.636;4.948;2023-05-08T04:02:35;2.30;;;1.80;;
59872;SDS011;50750;51.636;4.948;2023-05-08T04:10:49;2.80;;;2.00;;
59872;SDS011;50750;51.636;4.948;2023-05-08T04:13:30;3.00;;;2.10;;
59872;SDS011;50750;51.636;4.948;2023-05-08T04:16:05;2.40;;;1.90;;
59872;SDS011;50750;51.636;4.948;2023-05-08T04:18:37;3.50;;;1.90;;
59872;SDS011;50750;51.636;4.948;2023-05-08T04:21:10;2.80;;;2.20;;
59872;SDS011;50750;51.636;4.948;2023-05-08T04:23:39;2.60;;;1.80;;
59872;SDS011;50750;51.636;4.948;2023-05-08T04:26:07;2.70;;;1.90;;
59872;SDS011;50750;51.636;4.948;2023-05-08T04:28:36;2.60;;;2.00;;
59872;SDS011;50750;51.636;4.948;2023-05-08T04:31:03;2.90;;;2.00;;
59872;SDS011;50750;51.636;4.948;2023-05-08T04:33:32;3.00;;;2.30;;
59872;SDS011;50750;51.636;4.948;2023-05-08T04:36:01;3.20;;;2.40;;
59872;SDS011;50750;51.636;4.948;2023-05-08T04:38:28;2.90;;;2.30;;
59872;SDS011;50750;51.636;4.948;2023-05-08T04:40:54;2.90;;;2.40;;
59872;SDS011;50750;51.636;4.948;2023-05-08T04:43:21;2.40;;;2.00;;
59872;SDS011;50750;51.636;4.948;2023-05-08T04:45:47;2.90;;;2.20;;
59872;SDS011;50750;51.636;4.948;2023-05-08T04:48:14;2.60;;;2.00;;
59872;SDS011;50750;51.636;4.948;2023-05-08T04:50:40;2.70;;;1.90;;
59872;SDS011;50750;51.636;4.948;2023-05-08T04:53:07;2.60;;;1.90;;
59872;SDS011;50750;51.636;4.948;2023-05-08T04:55:33;2.80;;;2.20;;
59872;SDS011;50750;51.636;4.948;2023-05-08T04:58:00;3.00;;;2.00;;
59872;SDS011;50750;51.636;4.948;2023-05-08T05:00:26;2.70;;;2.00;;
59872;SDS011;50750;51.636;4.948;2023-05-08T05:02:52;3.00;;;2.30;;
59872;SDS011;50750;51.636;4.948;2023-05-08T05:05:19;2.50;;;2.00;;
59872;SDS011;50750;51.636;4.948;2023-05-08T05:07:46;2.80;;;2.10;;
59872;SDS011;50750;51.636;4.948;2023-05-08T05:10:12;3.00;;;2.10;;
59872;SDS011;50750;51.636;4.948;2023-05-08T05:12:39;2.90;;;2.20;;
59872;SDS011;50750;51.636;4.948;2023-05-08T05:15:06;2.80;;;2.10;;
59872;SDS011;50750;51.636;4.948;2023-05-08T05:17:33;2.70;;;2.00;;
59872;SDS011;50750;51.636;4.948;2023-05-08T05:20:00;2.70;;;2.00;;
59872;SDS011;50750;51.636;4.948;2023-05-08T05:22:27;2.70;;;2.00;;
59872;SDS011;50750;51.636;4.948;2023-05-08T05:24:53;2.50;;;1.90;;
59872;SDS011;50750;51.636;4.948;2023-05-08T05:27:20;2.50;;;1.80;;
59872;SDS011;50750;51.636;4.948;2023-05-08T05:29:47;2.50;;;1.90;;
59872;SDS011;50750;51.636;4.948;2023-05-08T05:32:16;2.50;;;2.00;;
59872;SDS011;50750;51.636;4.948;2023-05-08T05:34:42;2.70;;;2.00;;
59872;SDS011;50750;51.636;4.948;2023-05-08T05:37:09;3.10;;;2.20;;
59872;SDS011;50750;51.636;4.948;2023-05-08T05:39:36;2.60;;;1.90;;
59872;SDS011;50750;51.636;4.948;2023-05-08T05:42:03;2.70;;;2.00;;
59872;SDS011;50750;51.636;4.948;2023-05-08T05:44:29;2.40;;;1.90;;
59872;SDS011;50750;51.636;4.948;2023-05-08T05:46:56;2.20;;;1.60;;
59872;SDS011;50750;51.636;4.948;2023-05-08T05:49:22;2.80;;;1.90;;
59872;SDS011;50750;51.636;4.948;2023-05-08T05:51:49;2.60;;;2.00;;
59872;SDS011;50750;51.636;4.948;2023-05-08T05:54:15;2.80;;;2.10;;
59872;SDS011;50750;51.636;4.948;2023-05-08T05:56:42;2.40;;;1.80;;
59872;SDS011;50750;51.636;4.948;2023-05-08T05:59:08;2.60;;;1.90;;
59872;SDS011;50750;51.636;4.948;2023-05-08T06:01:35;2.40;;;1.80;;
59872;SDS011;50750;51.636;4.948;2023-05-08T06:04:01;2.10;;;1.70;;
59872;SDS011;50750;51.636;4.948;2023-05-08T06:06:28;2.50;;;1.90;;
59872;SDS011;50750;51.636;4.948;2023-05-08T06:08:55;2.50;;;2.00;;
59872;SDS011;50750;51.636;4.948;2023-05-08T06:11:21;3.00;;;1.90;;
59872;SDS011;50750;51.636;4.948;2023-05-08T06:13:48;2.50;;;1.70;;
59872;SDS011;50750;51.636;4.948;2023-05-08T06:16:15;2.50;;;1.70;;
59872;SDS011;50750;51.636;4.948;2023-05-08T06:18:41;2.80;;;1.90;;
59872;SDS011;50750;51.636;4.948;2023-05-08T06:21:08;2.90;;;1.90;;
59872;SDS011;50750;51.636;4.948;2023-05-08T06:23:37;2.50;;;2.00;;
59872;SDS011;50750;51.636;4.948;2023-05-08T06:26:03;2.90;;;2.10;;
59872;SDS011;50750;51.636;4.948;2023-05-08T06:28:30;2.60;;;2.10;;
59872;SDS011;50750;51.636;4.948;2023-05-08T06:30:56;2.30;;;1.80;;
59872;SDS011;50750;51.636;4.948;2023-05-08T06:33:23;2.60;;;1.90;;
59872;SDS011;50750;51.636;4.948;2023-05-08T06:35:49;2.70;;;2.00;;
59872;SDS011;50750;51.636;4.948;2023-05-08T06:38:16;2.80;;;2.10;;
59872;SDS011;50750;51.636;4.948;2023-05-08T06:40:43;2.40;;;1.70;;
59872;SDS011;50750;51.636;4.948;2023-05-08T06:43:11;2.20;;;1.70;;
59872;SDS011;50750;51.636;4.948;2023-05-08T06:45:38;2.80;;;2.00;;
59872;SDS011;50750;51.636;4.948;2023-05-08T06:48:05;2.90;;;2.10;;
59872;SDS011;50750;51.636;4.948;2023-05-08T06:50:32;3.00;;;1.90;;
59872;SDS011;50750;51.636;4.948;2023-05-08T06:52:59;3.30;;;2.30;;
59872;SDS011;50750;51.636;4.948;2023-05-08T06:55:25;2.90;;;2.00;;
59872;SDS011;50750;51.636;4.948;2023-05-08T06:57:52;2.80;;;2.00;;
59872;SDS011;50750;51.636;4.948;2023-05-08T07:00:18;2.90;;;2.20;;
59872;SDS011;50750;51.636;4.948;2023-05-08T07:02:45;3.00;;;2.10;;
59872;SDS011;50750;51.636;4.948;2023-05-08T07:05:11;2.80;;;2.00;;
59872;SDS011;50750;51.636;4.948;2023-05-08T07:07:38;2.90;;;2.20;;
59872;SDS011;50750;51.636;4.948;2023-05-08T07:10:05;3.30;;;2.10;;
59872;SDS011;50750;51.636;4.948;2023-05-08T07:12:32;2.80;;;2.10;;
59872;SDS011;50750;51.636;4.948;2023-05-08T07:14:58;3.10;;;2.20;;
59872;SDS011;50750;51.636;4.948;2023-05-08T07:17:25;3.00;;;2.20;;
59872;SDS011;50750;51.636;4.948;2023-05-08T07:19:51;3.00;;;2.20;;
59872;SDS011;50750;51.636;4.948;2023-05-08T07:22:18;2.90;;;2.40;;
59872;SDS011;50750;51.636;4.948;2023-05-08T07:24:44;2.90;;;2.10;;
59872;SDS011;50750;51.636;4.948;2023-05-08T07:27:11;3.40;;;2.50;;
59872;SDS011;50750;51.636;4.948;2023-05-08T07:29:39;3.60;;;2.60;;
59872;SDS011;50750;51.636;4.948;2023-05-08T07:32:06;3.40;;;2.50;;
59872;SDS011;50750;51.636;4.948;2023-05-08T07:34:33;3.80;;;2.70;;
59872;SDS011;50750;51.636;4.948;2023-05-08T07:37:00;4.00;;;2.80;;
59872;SDS011;50750;51.636;4.948;2023-05-08T07:39:26;4.60;;;2.90;;
59872;SDS011;50750;51.636;4.948;2023-05-08T07:41:53;5.10;;;2.70;;
59872;SDS011;50750;51.636;4.948;2023-05-08T07:44:19;4.20;;;2.80;;
59872;SDS011;50750;51.636;4.948;2023-05-08T07:46:46;3.50;;;2.60;;
59872;SDS011;50750;51.636;4.948;2023-05-08T07:49:12;4.20;;;3.00;;
59872;SDS011;50750;51.636;4.948;2023-05-08T07:51:39;3.90;;;2.80;;
59872;SDS011;50750;51.636;4.948;2023-05-08T07:54:06;4.10;;;3.00;;
59872;SDS011;50750;51.636;4.948;2023-05-08T07:56:33;4.50;;;3.30;;
59872;SDS011;50750;51.636;4.948;2023-05-08T08:01:28;23.80;;;16.30;;
59872;SDS011;50750;51.636;4.948;2023-05-08T08:03:55;23.00;;;16.40;;
59872;SDS011;50750;51.636;4.948;2023-05-08T08:06:22;16.30;;;11.90;;
59872;SDS011;50750;51.636;4.948;2023-05-08T08:08:48;16.40;;;11.70;;
59872;SDS011;50750;51.636;4.948;2023-05-08T08:11:15;15.00;;;10.00;;
59872;SDS011;50750;51.636;4.948;2023-05-08T08:13:42;7.30;;;5.70;;
59872;SDS011;50750;51.636;4.948;2023-05-08T08:16:08;8.90;;;6.70;;
59872;SDS011;50750;51.636;4.948;2023-05-08T08:18:35;10.60;;;6.80;;
59872;SDS011;50750;51.636;4.948;2023-05-08T08:21:05;11.20;;;7.60;;
59872;SDS011;50750;51.636;4.948;2023-05-08T08:23:32;10.50;;;7.90;;
59872;SDS011;50750;51.636;4.948;2023-05-08T08:25:59;9.80;;;8.20;;
59872;SDS011;50750;51.636;4.948;2023-05-08T08:28:26;12.60;;;9.80;;
59872;SDS011;50750;51.636;4.948;2023-05-08T08:30:52;12.50;;;9.90;;
59872;SDS011;50750;51.636;4.948;2023-05-08T08:33:22;13.50;;;10.20;;
59872;SDS011;50750;51.636;4.948;2023-05-08T08:38:15;13.10;;;9.30;;
59872;SDS011;50750;51.636;4.948;2023-05-08T08:40:42;12.70;;;9.20;;
59872;SDS011;50750;51.636;4.948;2023-05-08T08:43:08;13.60;;;9.80;;
59872;SDS011;50750;51.636;4.948;2023-05-08T08:45:35;12.70;;;8.90;;
59872;SDS011;50750;51.636;4.948;2023-05-08T08:48:03;11.90;;;9.10;;
59872;SDS011;50750;51.636;4.948;2023-05-08T08:50:35;13.00;;;9.60;;
59872;SDS011;50750;51.636;4.948;2023-05-08T08:53:06;14.00;;;10.60;;
59872;SDS011;50750;51.636;4.948;2023-05-08T08:55:38;13.80;;;10.90;;
59872;SDS011;50750;51.636;4.948;2023-05-08T09:00:54;16.10;;;11.70;;
59872;SDS011;50750;51.636;4.948;2023-05-08T09:03:21;15.30;;;11.40;;
59872;SDS011;50750;51.636;4.948;2023-05-08T09:05:47;15.40;;;11.20;;
59872;SDS011;50750;51.636;4.948;2023-05-08T09:08:14;16.90;;;12.00;;
59872;SDS011;50750;51.636;4.948;2023-05-08T09:10:44;20.00;;;12.80;;
59872;SDS011;50750;51.636;4.948;2023-05-08T09:13:11;17.70;;;12.90;;
59872;SDS011;50750;51.636;4.948;2023-05-08T09:15:38;15.10;;;10.50;;
59872;SDS011;50750;51.636;4.948;2023-05-08T09:18:04;14.00;;;10.30;;
59872;SDS011;50750;51.636;4.948;2023-05-08T09:20:31;13.90;;;11.10;;
59872;SDS011;50750;51.636;4.948;2023-05-08T09:22:59;16.90;;;11.40;;
59872;SDS011;50750;51.636;4.948;2023-05-08T09:25:43;12.90;;;9.70;;
59872;SDS011;50750;51.636;4.948;2023-05-08T09:28:21;13.40;;;10.20;;
59872;SDS011;50750;51.636;4.948;2023-05-08T09:30:50;12.60;;;9.50;;
59872;SDS011;50750;51.636;4.948;2023-05-08T09:33:24;11.70;;;8.90;;
59872;SDS011;50750;51.636;4.948;2023-05-08T09:35:54;13.90;;;10.60;;
59872;SDS011;50750;51.636;4.948;2023-05-08T09:38:38;17.70;;;12.60;;
59872;SDS011;50750;51.636;4.948;2023-05-08T09:41:15;12.10;;;10.10;;
59872;SDS011;50750;51.636;4.948;2023-05-08T09:43:42;17.70;;;11.30;;
59872;SDS011;50750;51.636;4.948;2023-05-08T09:46:23;12.10;;;8.80;;
59872;SDS011;50750;51.636;4.948;2023-05-08T09:48:52;10.50;;;8.80;;
59872;SDS011;50750;51.636;4.948;2023-05-08T09:51:20;11.70;;;9.10;;
59872;SDS011;50750;51.636;4.948;2023-05-08T09:53:50;12.80;;;8.90;;
59872;SDS011;50750;51.636;4.948;2023-05-08T09:56:35;11.00;;;8.90;;
59872;SDS011;50750;51.636;4.948;2023-05-08T09:59:04;11.70;;;8.40;;
59872;SDS011;50750;51.636;4.948;2023-05-08T10:01:50;10.60;;;8.10;;
59872;SDS011;50750;51.636;4.948;2023-05-08T10:04:17;10.70;;;8.20;;
59872;SDS011;50750;51.636;4.948;2023-05-08T10:06:57;10.40;;;8.50;;
59872;SDS011;50750;51.636;4.948;2023-05-08T10:09:24;9.80;;;8.10;;
59872;SDS011;50750;51.636;4.948;2023-05-08T10:11:51;12.10;;;8.70;;
59872;SDS011;50750;51.636;4.948;2023-05-08T10:14:20;13.10;;;9.70;;
59872;SDS011;50750;51.636;4.948;2023-05-08T10:16:48;12.20;;;9.20;;
59872;SDS011;50750;51.636;4.948;2023-05-08T10:19:18;11.90;;;9.50;;
59872;SDS011;50750;51.636;4.948;2023-05-08T10:21:48;10.60;;;8.20;;
59872;SDS011;50750;51.636;4.948;2023-05-08T10:24:19;10.10;;;7.90;;
59872;SDS011;50750;51.636;4.948;2023-05-08T10:27:33;10.60;;;8.00;;
59872;SDS011;50750;51.636;4.948;2023-05-08T10:29:51;10.40;;;8.00;;
59872;SDS011;50750;51.636;4.948;2023-05-08T10:32:19;10.20;;;7.90;;
59872;SDS011;50750;51.636;4.948;2023-05-08T10:35:00;9.60;;;8.10;;
59872;SDS011;50750;51.636;4.948;2023-05-08T10:37:29;10.20;;;7.60;;
59872;SDS011;50750;51.636;4.948;2023-05-08T10:39:56;11.90;;;8.00;;
59872;SDS011;50750;51.636;4.948;2023-05-08T10:42:24;10.30;;;7.30;;
59872;SDS011;50750;51.636;4.948;2023-05-08T10:44:52;10.70;;;7.90;;
59872;SDS011;50750;51.636;4.948;2023-05-08T10:50:43;11.80;;;8.30;;
59872;SDS011;50750;51.636;4.948;2023-05-08T10:53:12;11.50;;;8.20;;
59872;SDS011;50750;51.636;4.948;2023-05-08T10:55:39;9.00;;;7.30;;
59872;SDS011;50750;51.636;4.948;2023-05-08T10:58:15;10.30;;;8.30;;
59872;SDS011;50750;51.636;4.948;2023-05-08T11:03:25;11.30;;;8.00;;
59872;SDS011;50750;51.636;4.948;2023-05-08T11:05:53;11.00;;;8.00;;
59872;SDS011;50750;51.636;4.948;2023-05-08T11:08:25;10.90;;;7.80;;
59872;SDS011;50750;51.636;4.948;2023-05-08T11:13:33;10.10;;;7.30;;
59872;SDS011;50750;51.636;4.948;2023-05-08T11:16:02;10.70;;;7.20;;
59872;SDS011;50750;51.636;4.948;2023-05-08T11:18:32;9.10;;;6.70;;
59872;SDS011;50750;51.636;4.948;2023-05-08T11:21:02;9.80;;;7.00;;
59872;SDS011;50750;51.636;4.948;2023-05-08T11:23:32;8.90;;;7.30;;
59872;SDS011;50750;51.636;4.948;2023-05-08T11:26:03;8.00;;;6.70;;
59872;SDS011;50750;51.636;4.948;2023-05-08T11:31:23;8.40;;;6.60;;
59872;SDS011;50750;51.636;4.948;2023-05-08T11:37:09;9.90;;;7.30;;
59872;SDS011;50750;51.636;4.948;2023-05-08T11:39:36;9.30;;;7.50;;
59872;SDS011;50750;51.636;4.948;2023-05-08T11:45:05;11.90;;;9.00;;
59872;SDS011;50750;51.636;4.948;2023-05-08T11:47:39;9.00;;;7.00;;
59872;SDS011;50750;51.636;4.948;2023-05-08T11:50:11;8.80;;;6.70;;
59872;SDS011;50750;51.636;4.948;2023-05-08T11:52:38;11.40;;;7.70;;
59872;SDS011;50750;51.636;4.948;2023-05-08T11:55:09;10.00;;;7.20;;
59872;SDS011;50750;51.636;4.948;2023-05-08T11:57:38;9.10;;;7.30;;
59872;SDS011;50750;51.636;4.948;2023-05-08T12:02:39;8.90;;;7.40;;
59872;SDS011;50750;51.636;4.948;2023-05-08T12:05:08;9.50;;;7.50;;
59872;SDS011;50750;51.636;4.948;2023-05-08T12:07:42;11.60;;;7.70;;
59872;SDS011;50750;51.636;4.948;2023-05-08T12:10:15;9.70;;;7.30;;
59872;SDS011;50750;51.636;4.948;2023-05-08T12:12:42;9.70;;;7.20;;
59872;SDS011;50750;51.636;4.948;2023-05-08T12:15:11;12.00;;;7.80;;
59872;SDS011;50750;51.636;4.948;2023-05-08T12:17:38;10.70;;;8.00;;
59872;SDS011;50750;51.636;4.948;2023-05-08T12:20:12;11.00;;;7.80;;
59872;SDS011;50750;51.636;4.948;2023-05-08T12:22:40;9.00;;;6.80;;
59872;SDS011;50750;51.636;4.948;2023-05-08T12:25:07;9.00;;;6.50;;
59872;SDS011;50750;51.636;4.948;2023-05-08T12:27:35;8.90;;;6.70;;
59872;SDS011;50750;51.636;4.948;2023-05-08T12:30:07;9.90;;;7.10;;
59872;SDS011;50750;51.636;4.948;2023-05-08T12:32:36;9.50;;;7.00;;
59872;SDS011;50750;51.636;4.948;2023-05-08T12:35:05;8.20;;;6.70;;
59872;SDS011;50750;51.636;4.948;2023-05-08T12:37:36;10.00;;;6.90;;
59872;SDS011;50750;51.636;4.948;2023-05-08T12:40:03;8.50;;;6.80;;
59872;SDS011;50750;51.636;4.948;2023-05-08T12:45:30;10.30;;;7.40;;
59872;SDS011;50750;51.636;4.948;2023-05-08T12:48:00;12.50;;;8.50;;
59872;SDS011;50750;51.636;4.948;2023-05-08T12:50:32;10.40;;;8.00;;
59872;SDS011;50750;51.636;4.948;2023-05-08T12:53:04;8.60;;;6.70;;
59872;SDS011;50750;51.636;4.948;2023-05-08T12:55:35;8.70;;;6.40;;
59872;SDS011;50750;51.636;4.948;2023-05-08T13:00:41;11.50;;;7.60;;
59872;SDS011;50750;51.636;4.948;2023-05-08T13:03:10;9.90;;;7.20;;
59872;SDS011;50750;51.636;4.948;2023-05-08T13:05:42;9.70;;;6.80;;
59872;SDS011;50750;51.636;4.948;2023-05-08T13:08:09;9.90;;;7.50;;
59872;SDS011;50750;51.636;4.948;2023-05-08T13:10:43;10.50;;;8.00;;
59872;SDS011;50750;51.636;4.948;2023-05-08T13:13:21;13.10;;;8.20;;
59872;SDS011;50750;51.636;4.948;2023-05-08T13:15:52;11.10;;;8.20;;
59872;SDS011;50750;51.636;4.948;2023-05-08T13:18:22;11.00;;;8.10;;
59872;SDS011;50750;51.636;4.948;2023-05-08T13:20:51;11.50;;;7.70;;
59872;SDS011;50750;51.636;4.948;2023-05-08T13:23:18;10.20;;;7.30;;
59872;SDS011;50750;51.636;4.948;2023-05-08T13:25:44;10.30;;;7.50;;
59872;SDS011;50750;51.636;4.948;2023-05-08T13:28:11;9.50;;;7.20;;
59872;SDS011;50750;51.636;4.948;2023-05-08T13:30:38;11.70;;;7.50;;
59872;SDS011;50750;51.636;4.948;2023-05-08T13:33:05;9.50;;;7.20;;
59872;SDS011;50750;51.636;4.948;2023-05-08T13:35:32;9.70;;;7.10;;
59872;SDS011;50750;51.636;4.948;2023-05-08T13:37:59;11.20;;;7.30;;
59872;SDS011;50750;51.636;4.948;2023-05-08T13:40:26;9.60;;;6.80;;
59872;SDS011;50750;51.636;4.948;2023-05-08T13:42:53;9.10;;;7.10;;
59872;SDS011;50750;51.636;4.948;2023-05-08T13:45:20;10.10;;;7.30;;
59872;SDS011;50750;51.636;4.948;2023-05-08T13:47:47;10.80;;;7.60;;
59872;SDS011;50750;51.636;4.948;2023-05-08T13:50:16;12.80;;;8.80;;
59872;SDS011;50750;51.636;4.948;2023-05-08T13:52:44;12.10;;;8.30;;
59872;SDS011;50750;51.636;4.948;2023-05-08T13:55:11;10.30;;;7.10;;
59872;SDS011;50750;51.636;4.948;2023-05-08T13:57:38;13.10;;;7.80;;
59872;SDS011;50750;51.636;4.948;2023-05-08T14:00:06;10.60;;;7.70;;
59872;SDS011;50750;51.636;4.948;2023-05-08T14:02:34;12.70;;;7.10;;
59872;SDS011;50750;51.636;4.948;2023-05-08T14:05:01;11.90;;;7.50;;
59872;SDS011;50750;51.636;4.948;2023-05-08T14:07:27;11.60;;;8.00;;
59872;SDS011;50750;51.636;4.948;2023-05-08T14:09:55;13.60;;;8.30;;
59872;SDS011;50750;51.636;4.948;2023-05-08T14:12:22;11.10;;;8.00;;
59872;SDS011;50750;51.636;4.948;2023-05-08T14:14:48;12.30;;;8.30;;
59872;SDS011;50750;51.636;4.948;2023-05-08T14:17:15;14.90;;;9.30;;
59872;SDS011;50750;51.636;4.948;2023-05-08T14:19:41;15.60;;;9.30;;
59872;SDS011;50750;51.636;4.948;2023-05-08T14:22:08;13.30;;;9.00;;
59872;SDS011;50750;51.636;4.948;2023-05-08T14:24:34;12.90;;;9.30;;
59872;SDS011;50750;51.636;4.948;2023-05-08T14:27:01;14.70;;;9.80;;
59872;SDS011;50750;51.636;4.948;2023-05-08T14:29:31;14.90;;;9.30;;
59872;SDS011;50750;51.636;4.948;2023-05-08T14:32:01;13.70;;;9.00;;
59872;SDS011;50750;51.636;4.948;2023-05-08T14:34:27;14.60;;;9.10;;
59872;SDS011;50750;51.636;4.948;2023-05-08T14:36:54;13.70;;;8.70;;
59872;SDS011;50750;51.636;4.948;2023-05-08T14:39:20;13.00;;;9.10;;
59872;SDS011;50750;51.636;4.948;2023-05-08T14:41:47;14.70;;;9.60;;
59872;SDS011;50750;51.636;4.948;2023-05-08T14:44:13;12.60;;;9.10;;
59872;SDS011;50750;51.636;4.948;2023-05-08T14:46:40;14.40;;;9.20;;
59872;SDS011;50750;51.636;4.948;2023-05-08T14:49:06;14.00;;;9.20;;
59872;SDS011;50750;51.636;4.948;2023-05-08T14:51:33;14.60;;;8.90;;
59872;SDS011;50750;51.636;4.948;2023-05-08T14:54:00;12.40;;;8.70;;
59872;SDS011;50750;51.636;4.948;2023-05-08T14:56:26;12.60;;;8.20;;
59872;SDS011;50750;51.636;4.948;2023-05-08T14:58:53;14.00;;;8.30;;
59872;SDS011;50750;51.636;4.948;2023-05-08T15:01:20;13.80;;;8.60;;
59872;SDS011;50750;51.636;4.948;2023-05-08T15:03:47;12.50;;;8.40;;
59872;SDS011;50750;51.636;4.948;2023-05-08T15:06:18;12.30;;;7.70;;
59872;SDS011;50750;51.636;4.948;2023-05-08T15:08:47;11.30;;;7.40;;
59872;SDS011;50750;51.636;4.948;2023-05-08T15:11:14;12.70;;;8.40;;
59872;SDS011;50750;51.636;4.948;2023-05-08T15:13:41;11.80;;;8.20;;
59872;SDS011;50750;51.636;4.948;2023-05-08T15:16:07;12.70;;;7.90;;
59872;SDS011;50750;51.636;4.948;2023-05-08T15:18:34;14.20;;;9.00;;
59872;SDS011;50750;51.636;4.948;2023-05-08T15:21:01;13.20;;;9.50;;
59872;SDS011;50750;51.636;4.948;2023-05-08T15:23:27;12.40;;;8.40;;
59872;SDS011;50750;51.636;4.948;2023-05-08T15:25:54;11.60;;;8.20;;
59872;SDS011;50750;51.636;4.948;2023-05-08T15:28:20;12.70;;;8.70;;
59872;SDS011;50750;51.636;4.948;2023-05-08T15:30:47;11.80;;;8.80;;
59872;SDS011;50750;51.636;4.948;2023-05-08T15:33:13;11.00;;;8.10;;
59872;SDS011;50750;51.636;4.948;2023-05-08T15:35:40;12.30;;;8.50;;
59872;SDS011;50750;51.636;4.948;2023-05-08T15:38:07;10.80;;;7.30;;
59872;SDS011;50750;51.636;4.948;2023-05-08T15:40:34;11.10;;;7.50;;
59872;SDS011;50750;51.636;4.948;2023-05-08T15:43:00;11.50;;;7.90;;
59872;SDS011;50750;51.636;4.948;2023-05-08T15:45:27;10.70;;;7.90;;
59872;SDS011;50750;51.636;4.948;2023-05-08T15:47:53;11.90;;;8.20;;
59872;SDS011;50750;51.636;4.948;2023-05-08T15:50:20;11.10;;;8.40;;
59872;SDS011;50750;51.636;4.948;2023-05-08T15:52:47;11.40;;;8.00;;
59872;SDS011;50750;51.636;4.948;2023-05-08T15:55:14;13.60;;;9.40;;
59872;SDS011;50750;51.636;4.948;2023-05-08T15:57:42;13.10;;;9.10;;
59872;SDS011;50750;51.636;4.948;2023-05-08T16:00:09;12.10;;;8.10;;